首页
METAR-TAF:

METAR-TAF

机场 :

符牌國際機場

順化, 越南

纬度: 16-24N, 经度: 107-41E, 海拔: 17米

当前天气观测

该预报发布于2小时和59分钟前的18:00 UTC
风速7节,风向西
温度
气压 1021 hPa
能見度: 8000
散云层高于1000英尺
多云层高于3000英尺

METAR: VVPB 131800Z 26007KT 8000 SCT010 BKN030 19 19 Q1021 NOSIG

时间: 03:59 (20:59 UTC)

预报

该预报发布于3小时和59分钟前的17:00 UTC
预报有效从13日的 18点(UTC)到 14日的 18点(UTC)
风速6节,风向西转西北
能見度: 6000
少量云层高于700英尺
散云层高于1000英尺
多云层高于3500英尺
短暂存在
从 13日的 18点(UTC)到 14日的 03点(UTC)
能見度: 2000
雨, 轻雾
短暂存在
从 14日的 03点(UTC)到 14日的 10点(UTC)
能見度: 3200
雨, 轻雾
短暂存在
从 14日的 10点(UTC)到 14日的 18点(UTC)
能見度: 1800
雨, 轻雾

TAF: VVPB 131700Z 1318/1418 29006KT 6000 FEW007 SCT010 BKN035 TEMPO 1318/1403 2000 RA BR TEMPO 1403/1410 3200 RA BR TEMPO 1410/1418 1800 RA BR

超过4000个机场的气象观测和天气预报(METAR&TAF报告)。

可查询的气象台以黄色和红色小点在地图上表示。

将鼠标移到小点上方,可查看气象台名称。

然后点击查看天气观测和预报。

如需切换地图:点击带黑十字的绿色按钮放大地图;点击带横线的绿色按钮缩小地图;或者点击绿色箭头查看邻近地区的地图。


METAR-TAF: